Time;durP1;ratioP1;P1;durP2;ratioP2;P2;SDS_P1;SDS_P2;PMS_P1;PMS_P2;Temp;Humidity;BMP_temperature;BMP_pressure;BME280_temperature;BME280_humidity;BME280_pressure;Samples;Min_cycle;Max_cycle;Signal;HPM_P1;HPM_P2
2022/12/09 00:01:15;;;;;;;22.13;13.93;;;;;;;2.09;100.00;98090.03;4998065;28;20136;-85
2022/12/09 00:04:00;;;;;;;22.27;14.15;;;;;;;2.09;100.00;98087.47;5019185;28;20065;-82
2022/12/09 00:06:45;;;;;;;23.88;14.30;;;;;;;2.12;100.00;98091.66;5034543;28;20096;-87
2022/12/09 00:09:30;;;;;;;22.95;13.45;;;;;;;2.13;100.00;98096.78;5015604;28;21032;-85
2022/12/09 00:12:17;;;;;;;23.50;13.93;;;;;;;1.98;100.00;98085.38;5018068;28;20069;-85
2022/12/09 00:15:03;;;;;;;22.33;13.75;;;;;;;1.86;100.00;98080.75;4999048;28;20056;-85
2022/12/09 00:17:51;;;;;;;23.23;15.23;;;;;;;1.87;100.00;98079.81;5014444;28;20041;-84
2022/12/09 00:20:39;;;;;;;25.35;14.95;;;;;;;1.86;100.00;98084.16;5013416;28;20041;-88
2022/12/09 00:23:23;;;;;;;24.63;14.60;;;;;;;1.92;100.00;98091.66;5013516;28;20095;-87
2022/12/09 00:26:09;;;;;;;22.10;14.25;;;;;;;2.16;100.00;98085.44;4983294;28;20060;-84
2022/12/09 00:28:59;;;;;;;21.50;13.88;;;;;;;2.06;100.00;98079.84;5000586;28;20483;-85
2022/12/09 00:31:48;;;;;;;24.02;15.00;;;;;;;1.93;100.00;98076.97;5028702;28;20053;-86
2022/12/09 00:34:32;;;;;;;27.42;15.15;;;;;;;1.86;100.00;98068.66;5012521;28;20049;-85
2022/12/09 00:37:21;;;;;;;21.92;13.55;;;;;;;2.11;100.00;98070.16;4997239;28;20049;-87
2022/12/09 00:40:06;;;;;;;24.17;14.88;;;;;;;2.10;100.00;98068.47;4997490;28;20129;-87
2022/12/09 00:42:52;;;;;;;23.35;15.05;;;;;;;2.11;100.00;98057.22;5012304;28;20072;-86
2022/12/09 00:45:38;;;;;;;23.65;15.27;;;;;;;2.09;100.00;98061.63;5028552;28;20132;-87
2022/12/09 00:48:24;;;;;;;23.45;14.10;;;;;;;2.07;100.00;98047.94;5032297;28;20049;-84
2022/12/09 00:51:23;;;;;;;23.73;14.82;;;;;;;2.00;100.00;98049.13;5011697;28;20115;-85
2022/12/09 00:54:08;;;;;;;21.35;14.18;;;;;;;1.95;100.00;98052.75;5029320;28;20497;-86
2022/12/09 00:56:55;;;;;;;26.55;15.93;;;;;;;1.84;100.00;98052.41;5043575;28;20426;-84
2022/12/09 00:59:43;;;;;;;24.95;15.18;;;;;;;1.79;100.00;98064.66;5044226;28;20371;-85
2022/12/09 01:02:27;;;;;;;23.92;14.75;;;;;;;1.86;100.00;98060.06;5033841;28;20045;-84
2022/12/09 01:05:13;;;;;;;21.90;13.65;;;;;;;1.88;100.00;98056.50;5046708;28;20055;-84
2022/12/09 01:07:58;;;;;;;20.50;13.98;;;;;;;1.85;100.00;98056.66;5045449;28;20044;-86
2022/12/09 01:10:47;;;;;;;23.88;14.10;;;;;;;1.80;100.00;98061.16;5056591;28;20135;-87
2022/12/09 01:13:33;;;;;;;22.02;12.52;;;;;;;1.86;100.00;98062.66;5032402;28;20124;-87
2022/12/09 01:16:25;;;;;;;20.88;13.25;;;;;;;1.72;100.00;98062.34;5045054;28;20036;-84
2022/12/09 01:19:12;;;;;;;20.30;13.07;;;;;;;1.68;100.00;98068.53;5033655;28;20410;-87
2022/12/09 01:21:58;;;;;;;22.90;13.57;;;;;;;1.87;100.00;98075.50;5047087;28;20049;-84
2022/12/09 01:24:52;;;;;;;22.48;14.02;;;;;;;1.81;100.00;98068.84;5017194;28;20036;-85
2022/12/09 01:27:40;;;;;;;23.40;13.43;;;;;;;1.80;100.00;98069.78;5047022;28;20060;-86
2022/12/09 01:30:27;;;;;;;23.08;13.75;;;;;;;1.71;100.00;98059.84;5046087;28;20124;-86
2022/12/09 01:33:15;;;;;;;20.63;12.98;;;;;;;1.72;100.00;98046.88;5028255;28;20131;-88
2022/12/09 01:36:33;;;;;;;24.85;14.00;;;;;;;1.68;100.00;98044.47;5014628;28;20045;-86
2022/12/09 01:39:19;;;;;;;24.05;14.85;;;;;;;1.77;100.00;98044.06;4986685;28;20347;-87
2022/12/09 01:42:05;;;;;;;23.85;15.07;;;;;;;1.81;100.00;98044.78;4971050;28;20419;-85
2022/12/09 01:45:29;;;;;;;21.88;14.52;;;;;;;1.62;100.00;98058.50;4955780;28;20050;-87
2022/12/09 01:48:20;;;;;;;27.83;15.82;;;;;;;1.56;100.00;98057.03;4985772;28;20058;-86
2022/12/09 01:51:17;;;;;;;24.55;15.38;;;;;;;1.70;100.00;98046.09;4985164;28;20802;-87
2022/12/09 01:54:04;;;;;;;28.42;16.92;;;;;;;1.72;100.00;98030.53;4954753;28;20078;-86
2022/12/09 01:56:54;;;;;;;23.95;14.15;;;;;;;1.58;100.00;98039.69;4984726;28;20050;-88
2022/12/09 01:59:40;;;;;;;22.58;14.07;;;;;;;1.73;100.00;98029.59;4983807;28;20042;-84
2022/12/09 02:02:31;;;;;;;25.48;15.52;;;;;;;1.83;100.00;98024.88;4976453;28;20121;-86
2022/12/09 02:05:18;;;;;;;28.85;17.45;;;;;;;1.86;100.00;98027.31;4973198;28;20069;-86
2022/12/09 02:08:13;;;;;;;25.67;15.45;;;;;;;1.81;100.00;98034.44;4977438;28;20046;-86
2022/12/09 02:11:42;;;;;;;25.13;15.10;;;;;;;1.87;100.00;98035.91;5018034;28;20479;-85
2022/12/09 02:15:15;;;;;;;26.02;16.38;;;;;;;2.08;100.00;98042.72;5019142;28;20072;-86
2022/12/09 02:18:11;;;;;;;23.23;13.60;;;;;;;2.12;100.00;98033.06;4948308;28;20717;-85
2022/12/09 02:21:10;;;;;;;29.92;15.90;;;;;;;1.92;100.00;98023.63;4981393;28;20354;-85
2022/12/09 02:24:04;;;;;;;30.48;17.77;;;;;;;1.72;100.00;98022.78;4955425;28;20049;-86
2022/12/09 02:26:59;;;;;;;26.90;17.17;;;;;;;1.88;100.00;98022.09;4979886;28;20054;-87
2022/12/09 02:30:10;;;;;;;22.48;14.20;;;;;;;2.11;100.00;98028.81;4966754;28;20050;-87
2022/12/09 02:33:08;;;;;;;28.58;17.38;;;;;;;2.31;100.00;98030.47;4970358;28;20051;-87
2022/12/09 02:36:02;;;;;;;29.17;17.60;;;;;;;2.26;100.00;98029.84;4956494;28;20113;-86
2022/12/09 02:38:47;;;;;;;;;;;;;;;2.04;100.00;98030.81;4962925;28;20054;-88
2022/12/09 02:41:37;;;;;;;21.60;13.20;;;;;;;2.15;100.00;98032.09;4945249;28;19929;-86
2022/12/09 02:44:24;;;;;;;27.33;16.83;;;;;;;2.11;100.00;98027.94;4972793;28;20957;-86
2022/12/09 02:47:17;;;;;;;26.38;14.98;;;;;;;2.17;100.00;98030.28;4970076;28;20462;-86
2022/12/09 02:50:10;;;;;;;25.50;15.50;;;;;;;2.31;100.00;98029.63;4959169;28;20052;-86
2022/12/09 02:53:00;;;;;;;24.92;15.05;;;;;;;2.36;100.00;98024.25;5046821;28;20048;-85
2022/12/09 02:55:51;;;;;;;24.77;15.50;;;;;;;2.21;100.00;98017.13;4991111;28;20102;-85
2022/12/09 02:58:37;;;;;;;22.25;14.27;;;;;;;2.30;100.00;98022.78;5017040;28;20041;-87
2022/12/09 03:01:48;;;;;;;21.77;13.32;;;;;;;2.21;100.00;98026.63;5034879;28;20041;-87
2022/12/09 03:04:36;;;;;;;23.63;13.77;;;;;;;2.21;100.00;98024.91;5045062;28;20041;-85
2022/12/09 03:08:08;;;;;;;23.50;13.60;;;;;;;2.31;100.00;98019.28;5018811;28;20053;-87
2022/12/09 03:11:13;;;;;;;22.08;13.48;;;;;;;2.40;100.00;98016.28;4957310;28;20058;-86
2022/12/09 03:14:12;;;;;;;21.08;13.05;;;;;;;2.49;100.00;98025.34;4945099;28;20448;-86
2022/12/09 03:17:04;;;;;;;19.23;11.70;;;;;;;2.49;100.00;98035.69;4958406;28;20087;-85
2022/12/09 03:19:53;;;;;;;;;;;;;;;2.33;100.00;98040.75;4970505;28;20047;-85
2022/12/09 03:22:40;;;;;;;21.42;13.02;;;;;;;2.38;100.00;98031.03;4970780;28;20219;-85
2022/12/09 03:25:31;;;;;;;22.13;13.15;;;;;;;2.39;100.00;98037.03;4962928;28;20085;-87
2022/12/09 03:28:35;;;;;;;21.88;12.85;;;;;;;2.42;100.00;98034.28;4958001;28;20499;-87
2022/12/09 03:31:25;;;;;;;18.30;11.73;;;;;;;2.56;100.00;98029.31;4959751;28;20053;-87
2022/12/09 03:34:14;;;;;;;19.23;11.65;;;;;;;2.56;100.00;98021.56;4971288;28;20059;-85
2022/12/09 03:37:01;;;;;;;21.08;11.95;;;;;;;2.66;100.00;98014.19;4973439;28;20468;-84
2022/12/09 03:39:46;;;;;;;18.52;10.65;;;;;;;2.64;100.00;98008.28;4958697;28;20042;-86
2022/12/09 03:42:43;;;;;;;21.17;12.23;;;;;;;2.55;100.00;98011.28;4969458;28;20070;-87
2022/12/09 03:45:33;;;;;;;21.83;12.15;;;;;;;2.44;100.00;97996.28;4946353;28;20043;-86
2022/12/09 03:48:18;;;;;;;20.35;11.07;;;;;;;2.43;100.00;98005.78;5006978;28;20067;-88
2022/12/09 03:51:12;;;;;;;23.63;13.00;;;;;;;2.36;100.00;97996.66;5032294;28;20076;-87
2022/12/09 03:54:08;;;;;;;19.00;11.75;;;;;;;2.44;100.00;97991.97;5052521;28;20053;-86
2022/12/09 03:56:55;;;;;;;18.20;10.70;;;;;;;2.51;100.00;97992.50;5024259;28;20061;-87
2022/12/09 03:59:46;;;;;;;18.67;11.82;;;;;;;2.28;100.00;97970.31;5046472;28;20045;-84
2022/12/09 04:02:33;;;;;;;19.13;11.00;;;;;;;2.15;100.00;97975.22;5027776;28;20033;-86
2022/12/09 04:05:18;;;;;;;22.67;11.65;;;;;;;2.03;100.00;97964.56;5043111;28;20127;-87
2022/12/09 04:08:08;;;;;;;19.30;10.43;;;;;;;1.97;100.00;97967.41;5036624;28;20131;-84
2022/12/09 04:10:55;;;;;;;18.27;10.30;;;;;;;2.17;100.00;97965.66;5023446;28;20036;-86
2022/12/09 04:13:41;;;;;;;18.67;10.55;;;;;;;2.41;100.00;97974.00;5028550;28;20053;-87
2022/12/09 04:16:28;;;;;;;16.85;10.52;;;;;;;2.39;100.00;97969.81;5026898;28;20522;-87
2022/12/09 04:19:13;;;;;;;18.45;10.50;;;;;;;2.38;100.00;97970.72;5000949;28;20490;-85
2022/12/09 04:21:58;;;;;;;19.20;10.98;;;;;;;2.07;100.00;97963.50;5004603;28;20382;-85
2022/12/09 04:24:43;;;;;;;19.65;10.07;;;;;;;2.06;100.00;97963.56;5002932;28;20045;-85
2022/12/09 04:27:29;;;;;;;19.42;11.38;;;;;;;1.97;100.00;97963.06;5013534;28;20111;-85
2022/12/09 04:30:15;;;;;;;17.83;10.35;;;;;;;2.03;100.00;97980.06;5031554;28;20469;-81
2022/12/09 04:33:00;;;;;;;15.73;9.60;;;;;;;1.88;100.00;97978.19;5017910;28;20095;-82
2022/12/09 04:35:45;;;;;;;20.85;11.00;;;;;;;1.64;100.00;97975.78;5033535;28;20079;-82
2022/12/09 04:38:30;;;;;;;20.65;10.40;;;;;;;1.74;100.00;97971.88;5036538;28;20049;-89
2022/12/09 04:41:16;;;;;;;18.42;10.50;;;;;;;1.78;100.00;97973.41;5035515;28;20045;-80
2022/12/09 04:44:03;;;;;;;18.05;9.95;;;;;;;1.78;100.00;97962.25;5026898;28;20136;-86
2022/12/09 04:46:50;;;;;;;15.57;9.90;;;;;;;1.93;100.00;97968.47;5035536;28;20163;-86
2022/12/09 04:49:35;;;;;;;16.27;9.73;;;;;;;1.86;100.00;97964.50;5043249;28;20125;-85
2022/12/09 04:52:21;;;;;;;18.48;9.27;;;;;;;1.85;100.00;97968.81;5053925;28;20120;-86
2022/12/09 04:55:06;;;;;;;17.10;9.52;;;;;;;1.78;100.00;97968.25;5044865;28;20076;-89
2022/12/09 04:57:51;;;;;;;15.27;9.32;;;;;;;1.87;100.00;97964.41;5053166;28;20411;-84
2022/12/09 05:00:36;;;;;;;20.75;10.10;;;;;;;1.79;100.00;97976.84;5048286;28;20044;-87
2022/12/09 05:03:22;;;;;;;18.35;9.98;;;;;;;1.95;100.00;97972.66;5045382;28;20041;-88
2022/12/09 05:06:13;;;;;;;17.00;9.23;;;;;;;2.06;100.00;97961.81;5045982;28;20059;-84
2022/12/09 05:08:59;;;;;;;19.00;9.57;;;;;;;2.07;100.00;97954.91;5043583;28;20116;-85
2022/12/09 05:11:44;;;;;;;20.00;10.40;;;;;;;2.08;100.00;97960.00;5029687;28;20073;-85
2022/12/09 05:14:31;;;;;;;21.10;10.52;;;;;;;2.00;100.00;97963.84;5031430;28;20052;-84
2022/12/09 05:17:16;;;;;;;20.98;10.40;;;;;;;1.95;100.00;97961.47;5019161;28;20048;-85
2022/12/09 05:20:00;;;;;;;19.17;10.57;;;;;;;1.84;100.00;97952.47;5030443;28;20040;-86
2022/12/09 05:22:52;;;;;;;20.08;11.13;;;;;;;1.72;100.00;97947.88;5041429;28;20464;-85
2022/12/09 05:25:38;;;;;;;22.30;11.45;;;;;;;1.71;100.00;97954.78;5031125;28;20055;-86
2022/12/09 05:28:23;;;;;;;21.98;11.20;;;;;;;1.54;100.00;97941.78;5029149;28;20044;-82
2022/12/09 05:31:16;;;;;;;19.45;10.15;;;;;;;1.79;100.00;97944.13;5042539;28;20048;-86
2022/12/09 05:34:09;;;;;;;;;;;;;;;1.94;100.00;97936.56;5017332;28;20179;-86
2022/12/09 05:36:54;;;;;;;21.77;11.57;;;;;;;1.91;100.00;97936.72;5029467;28;20484;-87
2022/12/09 05:39:40;;;;;;;20.02;11.13;;;;;;;1.90;100.00;97932.44;5050461;28;20148;-85
2022/12/09 05:42:25;;;;;;;24.58;11.88;;;;;;;1.94;100.00;97931.41;5025415;28;20036;-84
2022/12/09 05:45:10;;;;;;;19.60;11.77;;;;;;;1.90;100.00;97927.25;5029201;28;20511;-85
2022/12/09 05:47:55;;;;;;;20.67;11.60;;;;;;;2.02;100.00;97918.97;5042247;28;20056;-85
2022/12/09 05:50:40;;;;;;;21.50;11.73;;;;;;;2.00;100.00;97912.16;5044448;28;20473;-89
2022/12/09 05:53:30;;;;;;;18.67;11.23;;;;;;;2.16;100.00;97913.13;5046933;28;20127;-90
2022/12/09 05:56:19;;;;;;;20.25;11.73;;;;;;;1.97;100.00;97901.06;5031590;28;20117;-84
2022/12/09 05:59:04;;;;;;;23.95;12.52;;;;;;;1.82;100.00;97888.88;5045081;28;20041;-85
2022/12/09 06:01:53;;;;;;;23.13;12.32;;;;;;;1.77;100.00;97880.50;5046852;28;20483;-89
2022/12/09 06:04:41;;;;;;;22.77;13.00;;;;;;;1.75;100.00;97882.34;5026236;28;20049;-84
2022/12/09 06:07:29;;;;;;;23.65;12.27;;;;;;;1.71;100.00;97876.47;5048572;28;20102;-89
2022/12/09 06:10:16;;;;;;;23.25;13.65;;;;;;;1.70;100.00;97861.88;5047150;28;20151;-89
2022/12/09 06:13:06;;;;;;;25.15;14.88;;;;;;;1.66;100.00;97853.44;5030579;28;20324;-89
2022/12/09 06:15:54;;;;;;;26.63;15.30;;;;;;;1.82;100.00;97852.72;5033632;28;20065;-89
2022/12/09 06:18:44;;;;;;;27.55;15.43;;;;;;;1.77;100.00;97849.50;5047397;28;20059;-88
2022/12/09 06:21:31;;;;;;;29.75;15.77;;;;;;;1.72;100.00;97841.97;5011207;28;20490;-88
2022/12/09 06:24:18;;;;;;;30.35;17.35;;;;;;;1.72;100.00;97837.66;5050349;28;20040;-88
2022/12/09 06:27:05;;;;;;;26.65;15.50;;;;;;;1.82;100.00;97830.31;5036057;28;20053;-88
2022/12/09 06:29:52;;;;;;;29.77;17.15;;;;;;;1.86;100.00;97837.91;5019320;28;20037;-89
2022/12/09 06:32:37;;;;;;;26.95;16.80;;;;;;;1.89;100.00;97840.34;5036855;28;20037;-86
2022/12/09 06:35:22;;;;;;;33.33;17.75;;;;;;;1.97;100.00;97839.06;5050898;28;20067;-85
2022/12/09 06:38:09;;;;;;;33.15;17.60;;;;;;;1.98;100.00;97839.91;5024257;28;20056;-85
2022/12/09 06:41:52;;;;;;;30.98;17.38;;;;;;;1.93;100.00;97847.88;5052715;28;20056;-87
2022/12/09 06:44:43;;;;;;;31.98;18.00;;;;;;;2.03;100.00;97845.69;5051518;28;20479;-87
2022/12/09 06:47:34;;;;;;;29.35;17.50;;;;;;;1.98;100.00;97839.91;5048914;28;20494;-88
2022/12/09 06:50:35;;;;;;;29.85;16.88;;;;;;;2.05;100.00;97843.88;5035592;28;20047;-90
2022/12/09 06:53:27;;;;;;;37.72;21.13;;;;;;;1.90;100.00;97839.44;5051983;28;20068;-89
2022/12/09 06:56:14;;;;;;;37.33;18.52;;;;;;;1.91;100.00;97851.44;5022284;28;20041;-88
2022/12/09 06:58:59;;;;;;;41.75;20.48;;;;;;;2.00;100.00;97842.41;5003655;28;20079;-88
2022/12/09 07:01:44;;;;;;;33.75;18.70;;;;;;;2.01;100.00;97846.69;5010906;28;20053;-88
2022/12/09 07:04:37;;;;;;;38.53;20.30;;;;;;;2.11;100.00;97860.81;5033899;28;20451;-88
2022/12/09 07:07:27;;;;;;;40.22;20.90;;;;;;;2.20;100.00;97869.88;5067409;23;20062;-86
2022/12/09 07:10:15;;;;;;;33.75;18.90;;;;;;;2.22;100.00;97866.31;5008167;28;20060;-87
2022/12/09 07:13:02;;;;;;;33.72;18.77;;;;;;;2.22;100.00;97863.72;5010277;28;20048;-87
2022/12/09 07:15:51;;;;;;;34.60;19.65;;;;;;;2.20;100.00;97851.78;5011379;28;20053;-87
2022/12/09 07:18:41;;;;;;;37.72;21.17;;;;;;;2.09;100.00;97847.13;4991787;28;20069;-87
2022/12/09 07:21:31;;;;;;;36.92;22.15;;;;;;;1.95;100.00;97840.03;5007049;28;20054;-84
2022/12/09 07:24:19;;;;;;;36.67;21.00;;;;;;;1.95;100.00;97846.06;5003367;28;20135;-83
2022/12/09 07:27:08;;;;;;;38.90;21.33;;;;;;;2.07;100.00;97843.78;5005688;28;20041;-85
2022/12/09 07:29:56;;;;;;;37.53;20.98;;;;;;;2.02;100.00;97844.03;4977187;28;20053;-85
2022/12/09 07:32:41;;;;;;;38.13;22.02;;;;;;;1.94;100.00;97834.03;5007918;28;20101;-87
2022/12/09 07:35:30;;;;;;;39.88;22.42;;;;;;;2.02;100.00;97820.78;5004482;28;20388;-85
2022/12/09 07:38:22;;;;;;;36.00;21.35;;;;;;;1.97;100.00;97822.72;4975967;28;20061;-85
2022/12/09 07:41:16;;;;;;;43.42;24.20;;;;;;;1.93;100.00;97822.03;4992113;28;20037;-86
2022/12/09 07:44:01;;;;;;;40.63;21.67;;;;;;;1.94;100.00;97826.28;4990344;28;20049;-85
2022/12/09 07:46:47;;;;;;;43.83;23.92;;;;;;;2.04;100.00;97831.03;5002426;28;20183;-87
2022/12/09 07:49:34;;;;;;;41.72;21.95;;;;;;;1.99;100.00;97826.09;4993408;28;20069;-87
2022/12/09 07:52:23;;;;;;;42.38;22.60;;;;;;;2.05;100.00;97819.78;5007568;28;20503;-84
2022/12/09 07:55:12;;;;;;;37.40;21.48;;;;;;;2.01;100.00;97808.75;5008028;28;20507;-88
2022/12/09 07:58:01;;;;;;;41.80;21.10;;;;;;;2.11;100.00;97809.13;5004991;28;20043;-87
2022/12/09 08:01:00;;;;;;;41.22;21.45;;;;;;;2.11;100.00;97806.53;4996055;28;20046;-89
2022/12/09 08:04:41;;;;;;;41.20;21.75;;;;;;;2.19;100.00;97796.66;5007832;28;20053;-87
2022/12/09 08:07:29;;;;;;;36.30;19.88;;;;;;;2.22;100.00;97790.50;5010839;28;20070;-86
2022/12/09 08:10:14;;;;;;;42.15;22.40;;;;;;;2.22;100.00;97788.75;5004685;28;20383;-86
2022/12/09 08:12:59;;;;;;;37.15;19.38;;;;;;;2.53;100.00;97783.78;5000100;28;20430;-84
2022/12/09 08:15:44;;;;;;;38.15;20.05;;;;;;;2.32;100.00;97783.97;5008620;28;20045;-89
2022/12/09 08:18:29;;;;;;;41.83;19.50;;;;;;;2.35;100.00;97777.78;5004205;28;20787;-87
2022/12/09 08:21:17;;;;;;;39.85;20.88;;;;;;;2.27;100.00;97770.44;5010535;28;20046;-86
2022/12/09 08:24:04;;;;;;;42.08;21.10;;;;;;;2.20;100.00;97769.91;5002936;28;20062;-87
2022/12/09 08:26:49;;;;;;;39.40;21.02;;;;;;;2.16;100.00;97759.78;4993281;28;20088;-88
2022/12/09 08:29:34;;;;;;;41.50;22.00;;;;;;;2.12;100.00;97761.72;4978331;28;20380;-85
2022/12/09 08:32:19;;;;;;;41.65;20.83;;;;;;;2.27;100.00;97761.84;5005966;28;20507;-87
2022/12/09 08:35:13;;;;;;;40.38;21.35;;;;;;;2.12;100.00;97747.94;4992277;28;20069;-90
2022/12/09 08:38:13;;;;;;;39.60;20.38;;;;;;;2.17;100.00;97762.31;4992050;28;20060;-87
2022/12/09 08:41:06;;;;;;;37.58;21.35;;;;;;;2.21;100.00;97768.16;5000989;28;20594;-90
2022/12/09 08:43:51;;;;;;;39.75;21.33;;;;;;;2.08;100.00;97768.78;5005264;28;20045;-86
2022/12/09 08:46:38;;;;;;;42.03;21.45;;;;;;;2.07;100.00;97769.69;4991017;28;20049;-87
2022/12/09 08:49:23;;;;;;;39.05;20.23;;;;;;;2.17;100.00;97777.81;4966802;28;20136;-88
2022/12/09 08:52:08;;;;;;;40.20;19.98;;;;;;;2.07;100.00;97786.94;5004270;28;20427;-86
2022/12/09 08:54:53;;;;;;;41.17;20.88;;;;;;;2.23;100.00;97781.84;5004605;28;20107;-87
2022/12/09 08:57:38;;;;;;;41.63;20.20;;;;;;;2.31;100.00;97773.69;5015173;28;20129;-86
2022/12/09 09:00:24;;;;;;;36.63;19.30;;;;;;;2.26;100.00;97783.44;4989152;28;20045;-87
2022/12/09 09:03:10;;;;;;;36.60;18.88;;;;;;;2.42;100.00;97780.91;4987448;28;20174;-83
2022/12/09 09:06:04;;;;;;;35.22;18.85;;;;;;;2.40;100.00;97793.91;5007208;28;20124;-86
2022/12/09 09:08:49;;;;;;;32.95;17.35;;;;;;;2.24;100.00;97783.50;5001176;28;20808;-84
2022/12/09 09:11:34;;;;;;;32.38;17.60;;;;;;;2.15;100.00;97774.47;5004342;28;20508;-84
2022/12/09 09:14:19;;;;;;;32.67;17.63;;;;;;;2.11;100.00;97760.03;4988709;28;20088;-85
2022/12/09 09:17:06;;;;;;;35.03;17.60;;;;;;;2.08;100.00;97767.94;4970634;28;20048;-85
2022/12/09 09:19:52;;;;;;;31.98;16.45;;;;;;;2.17;100.00;97771.81;4989973;28;20167;-86
2022/12/09 09:22:36;;;;;;;36.15;18.75;;;;;;;2.22;100.00;97770.66;5002225;28;20046;-84
2022/12/09 09:25:21;;;;;;;32.15;17.55;;;;;;;2.18;100.00;97758.81;5001645;28;20096;-83
2022/12/09 09:28:07;;;;;;;31.95;17.63;;;;;;;2.31;100.00;97766.78;4993169;28;20054;-85
2022/12/09 09:31:02;;;;;;;31.15;17.10;;;;;;;2.44;100.00;97754.06;4991187;28;20081;-84
2022/12/09 09:33:49;;;;;;;32.25;16.73;;;;;;;2.46;100.00;97754.00;5002272;28;20037;-81
2022/12/09 09:36:34;;;;;;;30.10;16.67;;;;;;;2.56;100.00;97767.28;4987712;28;20121;-85
2022/12/09 09:39:20;;;;;;;33.35;17.05;;;;;;;2.47;100.00;97755.66;5003551;28;20041;-84
2022/12/09 09:42:31;;;;;;;30.55;16.40;;;;;;;2.54;100.00;97748.41;5001806;28;20089;-83
2022/12/09 09:45:20;;;;;;;29.70;17.38;;;;;;;2.71;100.00;97745.78;4972939;28;20419;-82
2022/12/09 09:48:05;;;;;;;29.17;16.65;;;;;;;2.56;100.00;97731.91;5000719;28;20380;-85
2022/12/09 09:51:14;;;;;;;27.75;15.55;;;;;;;2.63;100.00;97713.50;4999765;28;20037;-83
2022/12/09 09:53:59;;;;;;;33.55;17.75;;;;;;;2.33;100.00;97697.72;4996327;28;21448;-83
2022/12/09 09:57:02;;;;;;;29.95;16.02;;;;;;;2.46;100.00;97676.44;4976213;28;20105;-81
2022/12/09 10:00:35;;;;;;;28.70;14.85;;;;;;;2.33;100.00;97679.63;4996403;28;20407;-83
2022/12/09 10:03:57;;;;;;;29.60;15.10;;;;;;;2.37;100.00;97667.38;4988118;28;20500;-84
2022/12/09 10:07:01;;;;;;;26.65;14.43;;;;;;;2.33;100.00;97655.56;5001835;28;20061;-84
2022/12/09 10:10:02;;;;;;;25.35;13.38;;;;;;;2.36;100.00;97655.38;5004462;28;20049;-86
2022/12/09 10:13:19;;;;;;;24.90;13.02;;;;;;;2.28;100.00;97652.38;5016191;28;20153;-84
2022/12/09 10:16:30;;;;;;;26.58;13.48;;;;;;;2.39;100.00;97651.78;4999114;28;20049;-83
2022/12/09 10:19:35;;;;;;;22.80;12.43;;;;;;;2.51;100.00;97646.00;4983511;28;20049;-85
2022/12/09 10:22:25;;;;;;;21.25;12.18;;;;;;;2.44;100.00;97649.81;4988288;28;20069;-85
2022/12/09 10:25:22;;;;;;;24.98;11.98;;;;;;;2.47;100.00;97654.81;4989896;28;20136;-84
2022/12/09 10:28:18;;;;;;;29.77;12.82;;;;;;;2.52;100.00;97645.06;4994378;28;20491;-86
2022/12/09 10:31:04;;;;;;;27.02;12.98;;;;;;;2.51;100.00;97652.91;5000830;28;20034;-85
2022/12/09 10:33:51;;;;;;;26.40;11.30;;;;;;;2.34;100.00;97642.53;5003245;28;20125;-85
2022/12/09 10:36:43;;;;;;;35.55;12.88;;;;;;;2.28;100.00;97636.88;5004450;28;20042;-83
2022/12/09 10:39:28;;;;;;;23.50;10.75;;;;;;;2.26;100.00;97629.19;5005587;28;20447;-84
2022/12/09 10:45:26;;;;;;;23.25;11.30;;;;;;;2.21;100.00;97628.59;5004766;28;20065;-86
2022/12/09 10:48:23;;;;;;;24.83;11.02;;;;;;;2.22;100.00;97627.66;5006040;28;20050;-88
2022/12/09 10:51:19;;;;;;;27.58;11.20;;;;;;;2.32;100.00;97612.50;4990249;28;20049;-84
2022/12/09 10:54:09;;;;;;;28.02;12.23;;;;;;;2.24;100.00;97619.84;4991347;28;20061;-87
2022/12/09 10:57:10;;;;;;;25.77;11.57;;;;;;;2.19;100.00;97607.16;4988373;28;20069;-86
2022/12/09 10:59:59;;;;;;;23.60;11.43;;;;;;;2.29;100.00;97605.75;5006144;28;20463;-85
2022/12/09 11:02:53;;;;;;;41.22;12.23;;;;;;;2.22;100.00;97605.25;4963763;28;20073;-84
2022/12/09 11:05:59;;;;;;;31.77;11.82;;;;;;;2.28;100.00;97593.75;5004023;28;20077;-86
2022/12/09 11:08:57;;;;;;;23.27;11.95;;;;;;;2.34;100.00;97593.44;4991098;28;20050;-87
2022/12/09 11:12:20;;;;;;;22.17;10.48;;;;;;;2.31;100.00;97592.75;4978655;28;20551;-85
2022/12/09 11:15:34;;;;;;;22.63;13.05;;;;;;;2.28;100.00;97582.59;5006696;28;20407;-86
2022/12/09 11:18:31;;;;;;;19.00;11.80;;;;;;;2.29;100.00;97572.16;4993461;28;20049;-86
2022/12/09 11:21:40;;;;;;;17.13;10.38;;;;;;;2.29;100.00;97563.56;4982574;28;20054;-85
2022/12/09 11:24:39;;;;;;;18.80;10.85;;;;;;;2.33;100.00;97549.56;4983232;28;20176;-88
2022/12/09 11:27:30;;;;;;;16.60;10.07;;;;;;;2.41;100.00;97544.81;5007510;28;20442;-83
2022/12/09 11:30:18;;;;;;;16.55;10.27;;;;;;;2.40;100.00;97537.16;4995116;28;20077;-88
2022/12/09 11:33:35;;;;;;;15.23;8.65;;;;;;;2.33;100.00;97523.72;4890792;29;20167;-83
2022/12/09 11:36:35;;;;;;;19.02;10.30;;;;;;;2.48;100.00;97531.53;4899373;29;20888;-87
2022/12/09 11:39:30;;;;;;;16.77;10.20;;;;;;;2.49;100.00;97523.72;4882399;29;20083;-84
2022/12/09 11:42:18;;;;;;;16.65;9.43;;;;;;;2.40;100.00;97519.88;4896168;29;20055;-86
2022/12/09 11:45:18;;;;;;;16.13;9.25;;;;;;;2.44;100.00;97516.22;4895686;29;20048;-84
2022/12/09 11:48:21;;;;;;;16.23;9.70;;;;;;;2.53;100.00;97516.63;4910168;29;20188;-83
2022/12/09 11:51:19;;;;;;;20.30;11.90;;;;;;;2.56;100.00;97517.25;4882931;29;20051;-85
2022/12/09 11:54:29;;;;;;;16.85;10.50;;;;;;;2.52;100.00;97528.72;4910075;29;20052;-84
2022/12/09 11:57:35;;;;;;;14.63;9.05;;;;;;;2.51;100.00;97527.06;4915964;28;20049;-86
2022/12/09 12:00:35;;;;;;;13.23;8.77;;;;;;;2.56;100.00;97527.59;5005111;28;20034;-83
2022/12/09 12:03:25;;;;;;;16.23;9.25;;;;;;;2.53;100.00;97509.69;5005846;28;20050;-84
2022/12/09 12:06:27;;;;;;;18.15;9.52;;;;;;;2.54;100.00;97515.69;5010894;28;20455;-81
2022/12/09 12:09:27;;;;;;;14.27;9.25;;;;;;;2.49;100.00;97508.19;5004934;28;20072;-82
2022/12/09 12:12:59;;;;;;;15.27;8.77;;;;;;;2.45;100.00;97509.25;5005672;28;20411;-84
2022/12/09 12:15:54;;;;;;;12.60;8.55;;;;;;;2.50;100.00;97509.84;4949161;28;20051;-82
2022/12/09 12:19:38;;;;;;;16.60;9.80;;;;;;;2.48;100.00;97503.91;4926811;28;20612;-82
2022/12/09 12:23:04;;;;;;;15.68;9.50;;;;;;;2.49;100.00;97491.84;4939157;28;20059;-81
2022/12/09 12:26:22;;;;;;;16.90;9.25;;;;;;;2.43;100.00;97488.66;4940229;28;20047;-84
2022/12/09 12:29:47;;;;;;;16.58;8.50;;;;;;;2.43;100.00;97491.25;4902931;29;20103;-85
2022/12/09 12:32:57;;;;;;;14.90;8.93;;;;;;;2.58;100.00;97486.13;4911115;29;20078;-83
2022/12/09 12:36:10;;;;;;;14.38;8.57;;;;;;;2.86;100.00;97487.16;4896605;29;20024;-86
2022/12/09 12:39:57;;;;;;;11.63;7.60;;;;;;;2.83;100.00;97480.44;4874251;29;20085;-85
2022/12/09 12:46:51;;;;;;;9.98;6.22;;;;;;;2.87;100.00;97472.47;4832135;29;20049;-86
2022/12/09 12:50:16;;;;;;;12.85;7.72;;;;;;;2.76;100.00;97466.16;4778449;29;20055;-86
2022/12/09 12:53:25;;;;;;;10.57;7.38;;;;;;;2.68;100.00;97458.00;4758052;30;20055;-82
2022/12/09 12:56:26;;;;;;;11.98;7.40;;;;;;;2.59;100.00;97460.19;4766561;30;20048;-84
2022/12/09 12:59:36;;;;;;;10.52;7.10;;;;;;;2.57;100.00;97458.63;4752284;30;20059;-84
2022/12/09 13:02:30;;;;;;;10.55;7.30;;;;;;;2.57;100.00;97451.72;4752100;30;20055;-82
2022/12/09 13:05:24;;;;;;;11.23;7.78;;;;;;;2.64;100.00;97459.97;4776319;29;20110;-83
2022/12/09 13:08:25;;;;;;;11.35;6.57;;;;;;;2.59;100.00;97457.59;4804309;29;20149;-84
2022/12/09 13:11:24;;;;;;;11.10;6.43;;;;;;;2.63;100.00;97454.88;4817127;29;20091;-85
2022/12/09 13:14:17;;;;;;;11.23;7.22;;;;;;;2.71;100.00;97450.91;4822725;29;20062;-85
2022/12/09 13:17:12;;;;;;;10.85;6.95;;;;;;;2.65;100.00;97445.25;4888602;29;20148;-85
2022/12/09 13:20:01;;;;;;;9.80;6.38;;;;;;;2.62;100.00;97435.94;4899935;29;20139;-84
2022/12/09 13:23:27;;;;;;;9.55;5.55;;;;;;;2.54;100.00;97433.78;4920194;29;20058;-85
2022/12/09 13:27:02;;;;;;;7.32;4.72;;;;;;;2.54;100.00;97425.19;4944398;28;20512;-83